Time;durP1;ratioP1;P1;durP2;ratioP2;P2;SDS_P1;SDS_P2;PMS_P1;PMS_P2;Temp;Humidity;BMP_temperature;BMP_pressure;BME280_temperature;BME280_humidity;BME280_pressure;Samples;Min_cycle;Max_cycle;Signal;HPM_P1;HPM_P2
2023/03/06 00:00:30;;;;;;;;;;;;;;;9.77;59.92;99983.00;4971218;28;20069;-78
2023/03/06 00:03:26;;;;;;;58.38;25.52;;;;;;;9.75;60.57;99980.59;4953976;28;20371;-77
2023/03/06 00:06:18;;;;;;;;;;;;;;;9.68;60.95;99979.53;4946949;29;20047;-78
2023/03/06 00:09:12;;;;;;;45.80;23.67;;;;;;;9.64;60.09;99970.47;4949378;28;19914;-78
2023/03/06 00:12:07;;;;;;;55.55;23.98;;;;;;;9.76;59.80;99970.53;4964403;28;20063;-78
2023/03/06 00:14:59;;;;;;;47.40;22.70;;;;;;;9.73;59.25;99973.91;4957492;28;20062;-78
2023/03/06 00:17:53;;;;;;;58.35;25.17;;;;;;;9.73;60.24;99963.06;4954803;28;20050;-77
2023/03/06 00:20:46;;;;;;;46.20;25.70;;;;;;;9.72;60.38;99964.19;4949305;29;20066;-77
2023/03/06 00:23:40;;;;;;;38.53;22.30;;;;;;;9.67;61.00;99965.16;4952000;28;20416;-78
2023/03/06 00:26:35;;;;;;;46.13;25.37;;;;;;;9.67;60.51;99967.09;4950370;28;20050;-78
2023/03/06 00:29:30;;;;;;;44.80;23.73;;;;;;;9.69;60.27;99957.50;4952384;28;20046;-77
2023/03/06 00:32:25;;;;;;;42.55;22.63;;;;;;;9.71;58.59;99957.16;4955779;28;20046;-78
2023/03/06 00:35:20;;;;;;;45.50;23.13;;;;;;;9.66;58.29;99960.84;4949532;28;20050;-77
2023/03/06 00:38:16;;;;;;;53.57;25.43;;;;;;;9.59;59.10;99962.50;4951206;29;20050;-78
2023/03/06 00:41:14;;;;;;;;;;;;;;;9.85;58.54;99960.44;4964865;28;20051;-78
2023/03/06 00:44:08;;;;;;;51.30;23.65;;;;;;;9.79;58.40;99964.47;4969878;28;19914;-76
2023/03/06 00:47:03;;;;;;;49.88;24.88;;;;;;;9.81;58.10;99957.56;4951135;28;20046;-78
2023/03/06 00:49:57;;;;;;;43.28;23.55;;;;;;;9.96;56.97;99953.50;4946619;28;20456;-78
2023/03/06 00:52:47;;;;;;;35.78;18.35;;;;;;;9.96;57.05;99958.91;4966383;28;20039;-79
2023/03/06 00:55:40;;;;;;;45.20;23.92;;;;;;;9.82;58.45;99942.09;4973341;29;20050;-80
2023/03/06 00:58:32;;;;;;;44.97;25.37;;;;;;;9.55;59.45;99934.44;4970826;28;20042;-78
2023/03/06 01:01:24;;;;;;;54.10;24.80;;;;;;;9.50;59.80;99923.75;4987668;28;20289;-78
2023/03/06 01:04:14;;;;;;;47.58;24.77;;;;;;;9.67;59.16;99932.59;4966064;29;20679;-79
2023/03/06 01:07:09;;;;;;;48.90;25.90;;;;;;;9.71;59.29;99925.38;4967426;29;20066;-79
2023/03/06 01:10:04;;;;;;;50.25;24.38;;;;;;;9.57;59.46;99919.41;4970667;28;20042;-80
2023/03/06 01:12:59;;;;;;;43.88;23.63;;;;;;;9.85;58.89;99925.91;4986069;28;20062;-79
2023/03/06 01:15:53;;;;;;;47.73;24.73;;;;;;;9.44;59.06;99921.22;4972459;28;20523;-79
2023/03/06 01:18:48;;;;;;;47.53;24.23;;;;;;;9.28;60.12;99912.03;4966754;28;20038;-78
2023/03/06 01:21:43;;;;;;;39.65;21.35;;;;;;;9.42;60.21;99909.09;4970084;28;20042;-79
2023/03/06 01:24:37;;;;;;;61.87;29.93;;;;;;;9.49;60.20;99903.16;4953007;28;20051;-78
2023/03/06 01:27:32;;;;;;;54.10;28.20;;;;;;;9.65;60.04;99904.97;4950352;28;20050;-78
2023/03/06 01:30:27;;;;;;;48.20;24.53;;;;;;;9.77;59.38;99905.06;4971817;28;20806;-78
2023/03/06 01:33:19;;;;;;;51.92;27.48;;;;;;;9.65;59.97;99899.53;4980243;28;20827;-78
2023/03/06 01:36:15;;;;;;;49.97;24.48;;;;;;;9.65;59.99;99904.19;4956839;29;20124;-79
2023/03/06 01:39:07;;;;;;;;;;;;;;;9.63;59.61;99901.81;4953456;29;20058;-78
2023/03/06 01:42:02;;;;;;;50.53;26.88;;;;;;;9.50;60.41;99905.53;4957179;28;19914;-78
2023/03/06 01:45:08;;;;;;;49.80;26.20;;;;;;;9.50;60.39;99904.75;4961999;28;20050;-78
2023/03/06 01:48:02;;;;;;;53.08;25.77;;;;;;;9.41;60.75;99900.16;4975087;28;20047;-78
2023/03/06 01:50:57;;;;;;;47.85;25.02;;;;;;;9.35;60.66;99900.66;4954102;29;20550;-78
2023/03/06 01:53:53;;;;;;;41.85;21.55;;;;;;;9.35;60.83;99898.75;4940574;29;20428;-78
2023/03/06 01:56:49;;;;;;;50.70;25.80;;;;;;;9.44;60.58;99896.00;4942282;29;20050;-78
2023/03/06 01:59:46;;;;;;;45.88;24.58;;;;;;;9.67;60.18;99900.00;4938063;29;20046;-78
2023/03/06 02:02:43;;;;;;;46.50;25.00;;;;;;;9.71;60.17;99890.09;4952118;29;20043;-78
2023/03/06 02:05:38;;;;;;;48.58;25.48;;;;;;;9.82;59.46;99893.22;4951766;29;20046;-78
2023/03/06 02:08:32;;;;;;;;;;;;;;;9.72;59.72;99893.59;4953922;29;20542;-78
2023/03/06 02:11:26;;;;;;;51.20;26.27;;;;;;;9.47;60.59;99895.34;4980334;28;19918;-77
2023/03/06 02:14:21;;;;;;;53.93;27.10;;;;;;;9.55;60.37;99896.44;4968662;28;20058;-78
2023/03/06 02:17:18;;;;;;;55.60;28.70;;;;;;;9.61;60.30;99895.09;4954288;28;20047;-78
2023/03/06 02:20:32;;;;;;;50.78;25.00;;;;;;;9.63;60.26;99890.16;4951937;29;20054;-77
2023/03/06 02:23:41;;;;;;;46.13;26.08;;;;;;;9.56;60.33;99877.09;4955060;28;20047;-77
2023/03/06 02:26:38;;;;;;;46.38;25.10;;;;;;;9.53;60.41;99880.47;4958822;28;20058;-78
2023/03/06 02:29:34;;;;;;;46.33;25.38;;;;;;;9.31;61.35;99878.81;4941609;29;20042;-79
2023/03/06 02:32:28;;;;;;;51.15;27.88;;;;;;;9.41;61.03;99878.44;4957118;28;20050;-78
2023/03/06 02:35:33;;;;;;;49.75;26.60;;;;;;;9.35;61.42;99881.66;4965526;28;20054;-78
2023/03/06 02:38:30;;;;;;;51.85;27.45;;;;;;;9.38;61.15;99873.69;4981683;28;20416;-79
2023/03/06 02:41:24;;;;;;;49.03;26.42;;;;;;;9.47;60.88;99878.25;4957972;28;20523;-78
2023/03/06 02:44:19;;;;;;;50.50;27.50;;;;;;;9.57;60.42;99877.88;4957011;28;20523;-78
2023/03/06 02:47:13;;;;;;;36.92;20.77;;;;;;;9.69;60.29;99872.56;4989227;28;20054;-77
2023/03/06 02:50:08;;;;;;;48.70;27.30;;;;;;;9.70;60.63;99880.34;4961148;28;20046;-77
2023/03/06 02:53:03;;;;;;;39.77;20.83;;;;;;;9.91;59.94;99864.06;4965277;28;20046;-78
2023/03/06 02:55:57;;;;;;;55.72;25.95;;;;;;;9.82;60.10;99874.22;4956878;28;20058;-78
2023/03/06 02:58:52;;;;;;;47.03;26.23;;;;;;;9.73;60.74;99870.75;4951474;28;20050;-78
2023/03/06 03:01:46;;;;;;;44.88;25.38;;;;;;;9.52;61.10;99869.94;4953366;28;20051;-78
2023/03/06 03:04:38;;;;;;;59.33;26.50;;;;;;;9.73;60.79;99862.63;4944703;28;20051;-80
2023/03/06 03:07:31;;;;;;;48.28;26.52;;;;;;;9.84;60.47;99853.75;4951506;29;20063;-79
2023/03/06 03:10:26;;;;;;;47.45;26.85;;;;;;;9.81;60.28;99856.31;4940759;29;20055;-79
2023/03/06 03:13:18;;;;;;;50.83;25.38;;;;;;;9.82;59.98;99861.44;4937943;29;20047;-79
2023/03/06 03:16:14;;;;;;;48.25;26.67;;;;;;;9.86;60.15;99856.91;4970258;28;20054;-78
2023/03/06 03:19:09;;;;;;;50.63;27.55;;;;;;;9.84;59.86;99861.91;4964591;29;20046;-78
2023/03/06 03:22:04;;;;;;;48.07;26.03;;;;;;;9.78;60.12;99860.50;4944339;29;20535;-78
2023/03/06 03:24:53;;;;;;;49.15;26.48;;;;;;;9.75;59.89;99861.16;4957437;28;20278;-79
2023/03/06 03:27:45;;;;;;;49.67;25.67;;;;;;;9.58;60.25;99865.91;4954314;28;20417;-78
2023/03/06 03:30:40;;;;;;;45.05;27.13;;;;;;;9.45;60.91;99862.31;4946586;28;20046;-78
2023/03/06 03:33:32;;;;;;;46.92;25.60;;;;;;;9.32;61.32;99863.34;4958174;28;20054;-78
2023/03/06 03:36:24;;;;;;;52.13;25.48;;;;;;;9.26;61.61;99854.59;4941179;29;20415;-77
2023/03/06 03:39:19;;;;;;;34.10;18.53;;;;;;;9.27;61.63;99858.91;4937088;29;20054;-77
2023/03/06 03:42:14;;;;;;;45.53;24.38;;;;;;;9.30;61.77;99855.53;4936516;29;20302;-77
2023/03/06 03:45:07;;;;;;;54.75;27.73;;;;;;;9.37;61.34;99855.81;4940856;29;20051;-78
2023/03/06 03:48:01;;;;;;;47.00;24.00;;;;;;;9.32;61.47;99856.00;4925503;29;20051;-78
2023/03/06 03:50:56;;;;;;;47.13;26.67;;;;;;;9.40;61.74;99855.16;4928534;29;20047;-78
2023/03/06 03:53:50;;;;;;;45.17;24.20;;;;;;;9.61;61.04;99848.97;4946805;29;20412;-79
2023/03/06 03:56:43;;;;;;;;;;;;;;;9.87;60.22;99863.16;4972706;28;20050;-78
2023/03/06 03:59:38;;;;;;;46.13;22.92;;;;;;;9.94;59.87;99859.91;4944583;28;19919;-78
2023/03/06 04:02:56;;;;;;;43.47;23.92;;;;;;;10.01;59.56;99860.94;4927140;29;20522;-77
2023/03/06 04:05:57;;;;;;;43.00;24.40;;;;;;;10.05;59.54;99856.47;4909417;29;20046;-77
2023/03/06 04:08:53;;;;;;;49.58;25.25;;;;;;;9.77;59.87;99858.91;4936137;29;20043;-79
2023/03/06 04:11:48;;;;;;;48.38;25.05;;;;;;;9.56;60.57;99851.88;4922031;29;20151;-78
2023/03/06 04:14:43;;;;;;;40.17;24.60;;;;;;;9.39;61.28;99850.88;4925419;29;20050;-78
2023/03/06 04:17:38;;;;;;;39.03;20.03;;;;;;;9.70;60.97;99858.63;4923638;29;20283;-78
2023/03/06 04:20:33;;;;;;;45.97;25.92;;;;;;;9.66;60.34;99848.75;4952075;29;20432;-78
2023/03/06 04:23:26;;;;;;;;;;;;;;;9.69;60.41;99850.84;4936952;29;20055;-77
2023/03/06 04:26:21;;;;;;;45.75;25.20;;;;;;;9.52;60.75;99846.31;4949950;29;19914;-77
2023/03/06 04:29:15;;;;;;;42.58;23.73;;;;;;;9.48;61.15;99839.94;4946928;29;20046;-79
2023/03/06 04:32:10;;;;;;;45.25;24.55;;;;;;;9.43;61.25;99838.22;4953467;29;20046;-78
2023/03/06 04:35:04;;;;;;;47.33;26.17;;;;;;;9.60;60.99;99840.00;4954339;28;20070;-78
2023/03/06 04:38:01;;;;;;;44.00;24.25;;;;;;;10.01;59.74;99841.94;4953553;28;20066;-78
2023/03/06 04:40:55;;;;;;;41.17;25.30;;;;;;;9.95;59.18;99835.16;4946952;28;20054;-78
2023/03/06 04:43:50;;;;;;;47.22;25.17;;;;;;;9.65;60.29;99828.97;4957873;28;20042;-78
2023/03/06 04:46:42;;;;;;;40.00;23.08;;;;;;;9.73;60.36;99830.03;4954608;28;20046;-79
2023/03/06 04:49:37;;;;;;;33.08;17.02;;;;;;;9.58;61.00;99825.19;4952472;28;20038;-79
2023/03/06 04:52:31;;;;;;;49.42;24.15;;;;;;;9.55;61.24;99820.44;4956282;28;20515;-79
2023/03/06 04:55:26;;;;;;;45.53;26.17;;;;;;;9.52;61.56;99813.75;4951439;28;20062;-79
2023/03/06 04:58:20;;;;;;;45.33;24.65;;;;;;;9.52;61.42;99827.31;4955150;28;20062;-79
2023/03/06 05:01:15;;;;;;;48.53;22.23;;;;;;;9.49;61.80;99825.28;4954524;28;20444;-78
2023/03/06 05:04:10;;;;;;;34.50;19.90;;;;;;;9.63;61.33;99828.50;4952091;28;20539;-77
2023/03/06 05:07:04;;;;;;;62.28;31.15;;;;;;;9.47;62.04;99829.41;4966382;28;20054;-77
2023/03/06 05:09:59;;;;;;;55.03;29.83;;;;;;;9.27;63.02;99829.06;4953202;28;20059;-79
2023/03/06 05:12:53;;;;;;;41.28;22.10;;;;;;;9.38;62.90;99819.44;4967224;28;20412;-78
2023/03/06 05:15:48;;;;;;;54.63;29.60;;;;;;;9.22;63.35;99823.03;4954396;28;20042;-78
2023/03/06 05:18:42;;;;;;;60.53;30.67;;;;;;;9.11;63.97;99814.47;4951455;28;20613;-78
2023/03/06 05:21:37;;;;;;;48.17;26.93;;;;;;;9.20;63.91;99828.78;4955739;28;20042;-78
2023/03/06 05:24:32;;;;;;;69.07;33.30;;;;;;;9.27;63.92;99823.63;4950531;28;20042;-79
2023/03/06 05:27:26;;;;;;;66.30;33.08;;;;;;;9.42;63.36;99823.06;4968322;28;20526;-78
2023/03/06 05:30:21;;;;;;;69.13;35.22;;;;;;;9.57;62.62;99826.31;4952966;29;20047;-78
2023/03/06 05:33:15;;;;;;;49.70;24.60;;;;;;;9.53;63.13;99823.47;4952526;29;20055;-79
2023/03/06 05:36:11;;;;;;;50.57;25.67;;;;;;;9.56;63.15;99819.28;4957086;29;20046;-79
2023/03/06 05:39:05;;;;;;;44.38;26.20;;;;;;;9.66;62.95;99827.03;4948126;29;20298;-77
2023/03/06 05:42:00;;;;;;;62.40;35.43;;;;;;;9.72;62.75;99820.31;4966368;28;20042;-79
2023/03/06 05:44:50;;;;;;;49.23;30.27;;;;;;;9.64;63.00;99821.16;4968272;28;20063;-79
2023/03/06 05:47:44;;;;;;;64.95;35.72;;;;;;;9.59;63.22;99822.16;4964954;28;20429;-79
2023/03/06 05:50:34;;;;;;;71.75;35.17;;;;;;;9.50;62.99;99815.22;4962726;28;20050;-80
2023/03/06 05:53:28;;;;;;;62.80;34.40;;;;;;;9.35;63.73;99800.28;4960700;28;20055;-80
2023/03/06 05:56:20;;;;;;;58.92;33.42;;;;;;;9.82;62.74;99817.97;4963937;28;20046;-80
2023/03/06 05:59:15;;;;;;;64.93;35.65;;;;;;;10.07;62.13;99818.88;4956182;28;20552;-79
2023/03/06 06:02:09;;;;;;;61.97;32.65;;;;;;;10.06;61.87;99821.94;4939672;29;20046;-78
2023/03/06 06:05:03;;;;;;;63.80;34.23;;;;;;;9.80;62.48;99819.47;4945420;29;20043;-77
2023/03/06 06:07:51;;;;;;;66.15;35.35;;;;;;;9.74;62.45;99818.84;4967453;28;20293;-78
2023/03/06 06:10:46;;;;;;;67.28;34.60;;;;;;;9.72;62.37;99823.81;4972621;28;20055;-78
2023/03/06 06:13:41;;;;;;;62.53;34.27;;;;;;;9.43;63.63;99821.94;4968489;28;20051;-78
2023/03/06 06:16:36;;;;;;;52.33;27.90;;;;;;;9.32;64.66;99819.94;4941705;29;20058;-79
2023/03/06 06:19:31;;;;;;;70.97;36.57;;;;;;;9.28;64.79;99825.22;4963258;28;20042;-79
2023/03/06 06:22:23;;;;;;;;;;;;;;;9.26;64.77;99826.66;4961860;28;20751;-79
2023/03/06 06:25:18;;;;;;;68.95;35.95;;;;;;;9.27;65.03;99828.25;4956133;28;19915;-79
2023/03/06 06:28:12;;;;;;;62.63;30.43;;;;;;;9.34;64.99;99826.66;4959222;28;20043;-78
2023/03/06 06:31:10;;;;;;;66.77;36.27;;;;;;;9.33;64.91;99819.63;4959492;28;20523;-80
2023/03/06 06:34:03;;;;;;;67.80;37.50;;;;;;;9.40;64.66;99817.16;4961174;28;20043;-79
2023/03/06 06:36:57;;;;;;;71.15;39.25;;;;;;;9.42;65.36;99824.97;4956183;28;20515;-80
2023/03/06 06:39:52;;;;;;;71.43;39.20;;;;;;;9.44;65.35;99820.03;4967901;28;20519;-79
2023/03/06 06:42:46;;;;;;;76.50;40.15;;;;;;;9.50;64.95;99829.56;4957158;28;20069;-79
2023/03/06 06:45:41;;;;;;;68.78;35.88;;;;;;;9.41;65.63;99824.19;4956532;28;20046;-78
2023/03/06 06:48:36;;;;;;;74.10;38.93;;;;;;;9.35;65.80;99822.78;4956611;28;20038;-79
2023/03/06 06:51:31;;;;;;;77.80;38.30;;;;;;;9.38;65.79;99824.84;4969838;28;20341;-78
2023/03/06 06:54:25;;;;;;;69.05;38.67;;;;;;;9.31;66.25;99827.28;4951788;29;20046;-78
2023/03/06 06:57:19;;;;;;;74.32;37.95;;;;;;;9.34;65.96;99833.97;4960805;28;20841;-78
2023/03/06 07:00:16;;;;;;;50.67;29.23;;;;;;;9.84;64.69;99842.09;4958837;28;20531;-78
2023/03/06 07:03:11;;;;;;;70.20;37.92;;;;;;;9.71;65.23;99849.38;4942087;28;20535;-78
2023/03/06 07:06:06;;;;;;;55.53;30.08;;;;;;;9.83;64.63;99845.94;4950050;28;20046;-79
2023/03/06 07:09:01;;;;;;;53.70;30.73;;;;;;;9.67;65.38;99853.06;4948815;28;20066;-79
2023/03/06 07:11:52;;;;;;;67.20;38.20;;;;;;;9.48;66.00;99839.94;4954854;28;20050;-78
2023/03/06 07:14:47;;;;;;;79.38;36.75;;;;;;;9.61;65.65;99840.81;4948993;28;20058;-78
2023/03/06 07:17:41;;;;;;;96.07;40.22;;;;;;;9.55;66.18;99847.59;4953892;28;20055;-79
2023/03/06 07:20:36;;;;;;;54.20;28.07;;;;;;;9.50;66.68;99845.06;4951666;28;20079;-79
2023/03/06 07:23:31;;;;;;;71.55;38.58;;;;;;;9.66;66.38;99851.47;4950126;28;20046;-78
2023/03/06 07:26:23;;;;;;;70.75;39.90;;;;;;;9.93;65.48;99850.16;4952477;28;20034;-78
2023/03/06 07:29:17;;;;;;;55.88;29.63;;;;;;;10.00;65.61;99853.16;4945728;29;20050;-78
2023/03/06 07:32:12;;;;;;;57.92;29.60;;;;;;;9.81;66.09;99840.03;4950727;28;20055;-78
2023/03/06 07:35:05;;;;;;;53.85;28.85;;;;;;;9.95;65.47;99847.94;4960645;28;20074;-80
2023/03/06 07:37:59;;;;;;;73.53;37.25;;;;;;;10.00;64.86;99843.09;4957459;28;20058;-79
2023/03/06 07:40:54;;;;;;;52.72;28.13;;;;;;;9.92;65.70;99848.56;4958115;28;20042;-79
2023/03/06 07:43:49;;;;;;;72.53;35.80;;;;;;;9.92;65.42;99854.81;4956207;28;20038;-78
2023/03/06 07:46:44;;;;;;;72.25;36.17;;;;;;;9.93;65.57;99853.69;4958700;28;20038;-78
2023/03/06 07:49:38;;;;;;;67.18;34.58;;;;;;;10.07;65.81;99850.69;4977656;28;20435;-78
2023/03/06 07:52:33;;;;;;;82.22;38.13;;;;;;;10.45;64.74;99855.97;4962234;28;20042;-78
2023/03/06 07:55:28;;;;;;;69.88;34.67;;;;;;;10.39;64.42;99854.59;4966363;28;20047;-78
2023/03/06 07:58:22;;;;;;;62.72;35.78;;;;;;;10.15;64.59;99861.50;4963909;28;20069;-79
2023/03/06 08:01:15;;;;;;;67.37;36.07;;;;;;;10.02;65.45;99854.41;4958031;29;20066;-78
2023/03/06 08:04:10;;;;;;;69.07;36.40;;;;;;;10.21;65.04;99867.53;4963517;28;20050;-79
2023/03/06 08:07:07;;;;;;;69.00;36.35;;;;;;;10.48;63.97;99858.00;4960261;28;20065;-79
2023/03/06 08:10:02;;;;;;;67.68;36.95;;;;;;;10.59;63.58;99854.53;4965186;28;20042;-79
2023/03/06 08:12:57;;;;;;;63.37;33.63;;;;;;;10.56;63.85;99863.38;4958316;28;20047;-79
2023/03/06 08:15:55;;;;;;;72.57;35.93;;;;;;;10.61;63.86;99873.25;4955632;28;20350;-79
2023/03/06 08:18:49;;;;;;;65.38;35.50;;;;;;;10.66;63.70;99862.94;4953525;28;20042;-79
2023/03/06 08:21:44;;;;;;;67.40;35.83;;;;;;;10.72;63.72;99872.44;4953252;28;20046;-77
2023/03/06 08:24:38;;;;;;;50.63;27.40;;;;;;;10.93;63.27;99877.81;4963403;28;20042;-80
2023/03/06 08:27:31;;;;;;;63.78;34.50;;;;;;;10.55;63.91;99866.41;4963484;28;20058;-79
2023/03/06 08:30:26;;;;;;;52.75;29.77;;;;;;;10.55;64.02;99872.66;4958909;28;20046;-79
2023/03/06 08:33:18;;;;;;;76.35;39.40;;;;;;;10.80;64.00;99876.22;4968775;28;20050;-80
2023/03/06 08:36:06;;;;;;;67.00;37.63;;;;;;;10.91;63.62;99871.94;4965660;28;20523;-78
2023/03/06 08:38:56;;;;;;;69.03;38.25;;;;;;;11.14;63.12;99872.28;4951933;28;20054;-76
2023/03/06 08:41:51;;;;;;;71.75;39.70;;;;;;;11.11;62.98;99870.25;4953955;28;20050;-77
2023/03/06 08:44:46;;;;;;;65.53;37.40;;;;;;;11.12;62.75;99860.97;4976759;28;20047;-77
2023/03/06 08:47:40;;;;;;;70.93;37.97;;;;;;;11.29;62.92;99870.81;4968707;28;20822;-78
2023/03/06 08:50:32;;;;;;;70.72;40.72;;;;;;;10.97;63.80;99870.56;4953766;28;20050;-79
2023/03/06 08:53:24;;;;;;;78.45;40.85;;;;;;;11.09;63.81;99878.75;4985331;28;20046;-79
2023/03/06 08:56:25;;;;;;;63.28;36.55;;;;;;;11.48;62.71;99880.00;4961459;28;20133;-80
2023/03/06 08:59:17;;;;;;;66.68;37.72;;;;;;;11.53;62.45;99868.88;4959517;29;20412;-81
2023/03/06 09:02:14;;;;;;;68.88;37.53;;;;;;;11.61;62.46;99877.28;4959141;28;20440;-79
2023/03/06 09:05:08;;;;;;;74.97;38.00;;;;;;;11.76;62.39;99871.94;4959877;28;20042;-80
2023/03/06 09:08:02;;;;;;;76.45;37.95;;;;;;;11.63;61.60;99878.50;4987165;28;20054;-80
2023/03/06 09:10:57;;;;;;;86.00;40.30;;;;;;;11.61;62.40;99872.63;4960828;28;20416;-80
2023/03/06 09:13:49;;;;;;;74.93;37.42;;;;;;;11.72;61.58;99872.94;4958467;28;20055;-79
2023/03/06 09:16:44;;;;;;;76.68;38.33;;;;;;;11.66;61.36;99872.38;4959682;28;20070;-81
2023/03/06 09:19:37;;;;;;;69.55;37.85;;;;;;;11.48;62.02;99866.38;4958849;28;20050;-80
2023/03/06 09:22:29;;;;;;;65.57;36.58;;;;;;;12.06;60.51;99863.47;4968053;28;20120;-81
2023/03/06 09:25:24;;;;;;;70.15;37.53;;;;;;;12.20;60.08;99863.88;4958895;28;20707;-79
2023/03/06 09:28:16;;;;;;;68.35;34.00;;;;;;;12.51;59.78;99852.25;4959650;28;20766;-80
2023/03/06 09:31:11;;;;;;;72.15;37.08;;;;;;;12.82;58.66;99864.00;4962134;28;20050;-80
2023/03/06 09:34:06;;;;;;;69.18;37.65;;;;;;;12.79;57.64;99867.44;4955848;29;20416;-81
2023/03/06 09:37:03;;;;;;;60.90;30.97;;;;;;;12.61;57.74;99863.44;4959989;29;20046;-80
2023/03/06 09:39:57;;;;;;;67.10;37.42;;;;;;;12.46;58.39;99866.94;4958903;28;20085;-80
2023/03/06 09:42:52;;;;;;;65.67;34.00;;;;;;;12.54;58.65;99857.81;4957463;29;20051;-80
2023/03/06 09:45:46;;;;;;;58.03;33.07;;;;;;;12.43;59.10;99864.91;4958246;29;20038;-79
2023/03/06 09:49:28;;;;;;;67.15;35.30;;;;;;;13.49;56.52;99864.91;4954113;29;20046;-79
2023/03/06 09:52:54;;;;;;;60.55;32.35;;;;;;;14.02;54.08;99870.72;4955177;29;20054;-79
2023/03/06 09:55:49;;;;;;;61.83;32.95;;;;;;;13.10;54.46;99852.22;4958676;29;20051;-79
2023/03/06 09:58:47;;;;;;;52.83;27.83;;;;;;;12.53;57.14;99856.22;4958537;29;20516;-80
2023/03/06 10:01:47;;;;;;;64.65;33.20;;;;;;;12.82;56.32;99855.81;4955421;29;20070;-80
2023/03/06 10:04:47;;;;;;;58.85;33.60;;;;;;;12.75;55.79;99860.28;4953767;29;20046;-80
2023/03/06 10:08:03;;;;;;;63.05;32.88;;;;;;;13.48;54.84;99857.84;4947609;29;20054;-79
2023/03/06 10:11:03;;;;;;;64.93;31.08;;;;;;;13.10;55.09;99857.69;4938206;29;20066;-77
2023/03/06 10:14:08;;;;;;;53.88;29.65;;;;;;;12.86;55.45;99859.44;4936577;29;20055;-77
2023/03/06 10:17:02;;;;;;;58.17;32.03;;;;;;;13.38;54.10;99857.59;4947627;29;20117;-79
2023/03/06 10:19:55;;;;;;;56.67;29.27;;;;;;;13.57;54.15;99863.91;4944574;29;20113;-80
2023/03/06 10:23:25;;;;;;;58.50;27.52;;;;;;;13.33;54.24;99852.41;4959657;29;20046;-79
2023/03/06 10:26:20;;;;;;;51.47;30.13;;;;;;;13.29;55.14;99855.06;4958935;29;20055;-79
2023/03/06 10:29:38;;;;;;;60.05;29.00;;;;;;;13.55;53.65;99849.81;4960921;28;20046;-79
2023/03/06 10:32:40;;;;;;;56.42;29.65;;;;;;;13.45;53.65;99853.09;4963601;28;20428;-79
2023/03/06 10:35:41;;;;;;;58.63;28.02;;;;;;;13.98;53.72;99848.00;4969159;28;20046;-79
2023/03/06 10:38:37;;;;;;;51.70;29.33;;;;;;;14.88;50.01;99860.34;4961964;28;20533;-80
2023/03/06 10:41:31;;;;;;;52.28;27.05;;;;;;;13.74;51.68;99854.53;4975878;28;20534;-79
2023/03/06 10:44:26;;;;;;;46.38;26.90;;;;;;;13.44;53.01;99851.50;4968832;28;20059;-79
2023/03/06 10:47:38;;;;;;;40.25;21.80;;;;;;;13.22;52.78;99835.78;4961958;28;20047;-80
2023/03/06 10:50:31;;;;;;;48.58;26.90;;;;;;;13.61;53.38;99839.41;4964415;28;20066;-80
2023/03/06 10:53:29;;;;;;;45.85;26.15;;;;;;;13.68;52.43;99836.81;4971435;28;20417;-79
2023/03/06 10:56:37;;;;;;;48.80;26.30;;;;;;;13.50;53.03;99836.44;4970207;28;20050;-79
2023/03/06 10:59:31;;;;;;;43.53;24.23;;;;;;;13.79;51.68;99835.13;4972183;28;20050;-80
2023/03/06 11:02:34;;;;;;;50.78;26.00;;;;;;;13.63;51.47;99821.50;4966274;28;20063;-79
2023/03/06 11:05:26;;;;;;;36.03;19.73;;;;;;;13.95;51.05;99829.59;4951483;28;20043;-79
2023/03/06 11:08:25;;;;;;;46.92;25.70;;;;;;;14.36;50.36;99831.63;4957401;28;20054;-79
2023/03/06 11:11:26;;;;;;;45.75;24.63;;;;;;;14.05;51.15;99835.28;4952062;28;20116;-79
2023/03/06 11:14:21;;;;;;;39.38;22.70;;;;;;;14.13;49.51;99822.53;4957970;28;20054;-79
2023/03/06 11:17:30;;;;;;;49.88;22.98;;;;;;;15.07;47.39;99813.72;4967756;28;20058;-79
2023/03/06 11:20:36;;;;;;;41.55;22.08;;;;;;;14.58;47.40;99815.63;4955236;28;20050;-79
2023/03/06 11:23:45;;;;;;;41.75;22.42;;;;;;;15.43;45.68;99808.78;4962151;28;20649;-79
2023/03/06 11:26:59;;;;;;;40.33;21.30;;;;;;;16.56;42.49;99810.94;4958219;28;20120;-79
2023/03/06 11:29:54;;;;;;;40.38;23.30;;;;;;;16.02;45.52;99811.53;4967558;28;20046;-79
2023/03/06 11:33:16;;;;;;;31.17;17.60;;;;;;;15.64;45.65;99801.66;4973793;28;20151;-79
2023/03/06 11:36:24;;;;;;;44.90;22.85;;;;;;;16.42;44.63;99801.78;4946552;29;20669;-79
2023/03/06 11:39:46;;;;;;;44.50;20.90;;;;;;;16.44;45.31;99789.28;4941784;29;20050;-79
2023/03/06 11:42:56;;;;;;;50.10;24.85;;;;;;;15.69;46.81;99798.59;4945804;29;20058;-79
2023/03/06 11:46:16;;;;;;;41.92;24.23;;;;;;;16.07;45.59;99797.50;4956596;29;20108;-79
2023/03/06 11:49:29;;;;;;;39.83;22.65;;;;;;;18.59;39.83;99791.00;4952205;28;20077;-79
2023/03/06 11:52:47;;;;;;;38.55;21.13;;;;;;;20.67;36.11;99791.63;4960384;28;20062;-79
2023/03/06 11:56:05;;;;;;;50.38;22.15;;;;;;;22.79;31.76;99794.00;4955558;28;20058;-79
2023/03/06 11:59:06;;;;;;;37.92;19.40;;;;;;;25.54;26.78;99781.78;4958255;29;20131;-79
2023/03/06 12:02:24;;;;;;;51.97;21.48;;;;;;;23.93;28.98;99776.06;4965608;28;20054;-79
2023/03/06 12:05:45;;;;;;;35.35;20.05;;;;;;;24.29;28.59;99774.91;4964632;28;20054;-79
2023/03/06 12:09:03;;;;;;;29.85;18.52;;;;;;;20.20;33.34;99768.22;4958447;28;20042;-79
2023/03/06 12:12:41;;;;;;;34.75;19.02;;;;;;;18.64;36.99;99752.81;4956275;28;20050;-79
2023/03/06 12:15:59;;;;;;;33.33;17.10;;;;;;;19.22;35.46;99755.13;4985248;28;20058;-76
2023/03/06 12:18:58;;;;;;;34.20;19.88;;;;;;;18.61;37.04;99748.09;4954720;28;20050;-76
2023/03/06 12:22:09;;;;;;;29.80;18.88;;;;;;;18.56;37.02;99737.47;4959667;28;20054;-75
2023/03/06 12:25:24;;;;;;;27.60;17.60;;;;;;;21.24;32.45;99726.34;4954172;28;20050;-75
2023/03/06 12:28:59;;;;;;;33.83;19.65;;;;;;;24.95;27.34;99728.47;4954139;28;20054;-75
2023/03/06 12:32:20;;;;;;;33.35;18.65;;;;;;;28.22;22.59;99725.13;4956630;28;20421;-76
2023/03/06 12:35:46;;;;;;;27.40;17.38;;;;;;;27.51;23.22;99716.63;4952029;28;20050;-75
2023/03/06 12:39:00;;;;;;;35.08;17.77;;;;;;;25.20;25.81;99711.91;4937827;28;20535;-75
2023/03/06 12:42:04;;;;;;;33.50;18.17;;;;;;;24.94;26.07;99715.81;4953609;28;20054;-75
2023/03/06 12:45:09;;;;;;;28.27;17.20;;;;;;;25.57;25.57;99712.50;4953534;28;20054;-75
2023/03/06 12:48:06;;;;;;;57.50;20.17;;;;;;;25.47;25.67;99704.00;4951377;28;20042;-76
2023/03/06 12:50:58;;;;;;;29.55;17.85;;;;;;;25.29;26.03;99698.16;4946206;29;20074;-76
2023/03/06 12:53:51;;;;;;;33.42;19.23;;;;;;;24.78;26.33;99697.13;4955774;28;20042;-76
2023/03/06 12:56:46;;;;;;;30.02;16.63;;;;;;;25.47;25.20;99695.66;4950544;29;20047;-75
2023/03/06 12:59:42;;;;;;;31.70;19.30;;;;;;;25.48;25.42;99688.88;4969058;28;20042;-76
2023/03/06 13:02:56;;;;;;;33.88;17.73;;;;;;;27.15;23.31;99689.94;4955764;28;20111;-77
2023/03/06 13:05:58;;;;;;;47.35;19.98;;;;;;;28.23;22.22;99682.72;4952394;28;20042;-76
2023/03/06 13:09:07;;;;;;;37.22;18.85;;;;;;;29.43;20.30;99685.22;4946234;28;20051;-76
2023/03/06 13:12:32;;;;;;;29.25;18.05;;;;;;;26.65;23.39;99681.69;4955689;28;20412;-75
2023/03/06 13:15:39;;;;;;;39.70;18.05;;;;;;;27.83;22.16;99676.31;4949847;28;20050;-75
2023/03/06 13:18:47;;;;;;;27.63;17.70;;;;;;;25.58;24.42;99669.53;4952966;28;20050;-76
2023/03/06 13:21:59;;;;;;;25.55;16.30;;;;;;;26.50;23.36;99666.69;4945438;28;20066;-76
2023/03/06 13:25:28;;;;;;;27.77;16.27;;;;;;;27.38;22.71;99665.63;4956814;28;20535;-76
2023/03/06 13:28:46;;;;;;;32.03;16.45;;;;;;;26.74;23.16;99659.47;4951758;29;20605;-77
2023/03/06 13:31:39;;;;;;;30.00;17.00;;;;;;;26.19;23.84;99655.31;4953668;29;20066;-76
2023/03/06 13:34:45;;;;;;;28.73;17.27;;;;;;;24.80;25.51;99650.16;4952578;29;20055;-76
2023/03/06 13:37:48;;;;;;;31.08;18.23;;;;;;;22.58;29.06;99650.97;4957057;28;20418;-76
2023/03/06 13:40:43;;;;;;;32.53;19.00;;;;;;;22.86;29.18;99652.47;4947972;29;20047;-77
2023/03/06 13:43:43;;;;;;;28.75;17.92;;;;;;;22.54;29.25;99639.97;4967255;28;20054;-77
2023/03/06 13:46:40;;;;;;;30.52;18.40;;;;;;;21.34;31.09;99638.94;4949799;29;20416;-77